Abbotsford, Wisconsin
Current Conditions -  °F | °C
As of 12:55 AM on Monday 24 Nov 2014 (Local Time) from KMDZ Reporting Station
Drizzle Drizzle  
Wind Chill:   Ceiling: 400
Heat Index:   Visibility: 0.5mi
Dew Point:   Wind: 3mph
Humidity: 100%   Direction: 310°NW
Pressure: 29.11"   Gusts: NA
Location:  44.95°N, 90.32°W
Report Text: KMDZ 240655Z AUTO 31003KT 1/2SM -DZ OVC004 04/04 A2911 RMK AO2 P0005 T00410041
Loading
Personal Weather Stations






























Interactive Weather Map New forecast layout! Learn more

10-Day Weather Forecast

Advertisements
Track Severe Weather on mobile